createdAt,value
2023-03-24T00:01:28.627Z,11.60
2023-03-24T00:06:54.422Z,11.58
2023-03-24T00:12:19.046Z,11.54
2023-03-24T00:17:43.301Z,11.48
2023-03-24T00:23:08.605Z,11.38
2023-03-24T00:28:37.279Z,11.30
2023-03-24T00:34:03.166Z,11.25
2023-03-24T00:39:27.188Z,11.24
2023-03-24T00:44:54.213Z,11.24
2023-03-24T00:50:20.936Z,11.33
2023-03-24T00:55:48.512Z,11.49
2023-03-24T01:01:13.305Z,11.63
2023-03-24T01:06:38.208Z,11.71
2023-03-24T01:12:05.927Z,11.77
2023-03-24T01:17:30.023Z,11.78
2023-03-24T01:22:54.155Z,11.79
2023-03-24T01:28:24.796Z,11.80
2023-03-24T01:33:49.390Z,11.82
2023-03-24T01:39:13.101Z,11.82
2023-03-24T01:44:38.767Z,11.83
2023-03-24T01:50:05.545Z,11.85
2023-03-24T01:55:32.503Z,11.87
2023-03-24T02:00:58.463Z,11.86
2023-03-24T02:06:49.468Z,11.90
2023-03-24T02:12:14.468Z,11.93
2023-03-24T02:17:45.527Z,11.99
2023-03-24T02:23:35.009Z,12.01
2023-03-24T02:29:48.355Z,11.92
2023-03-24T02:35:36.148Z,11.86
2023-03-24T02:41:18.341Z,11.86
2023-03-24T02:46:50.163Z,11.84
2023-03-24T02:52:24.176Z,11.80
2023-03-24T02:58:01.032Z,11.77
2023-03-24T03:03:52.494Z,11.77
2023-03-24T03:09:21.847Z,11.83
2023-03-24T03:14:53.380Z,11.91
2023-03-24T03:20:23.526Z,11.99
2023-03-24T03:25:52.713Z,12.06
2023-03-24T03:31:24.095Z,12.10
2023-03-24T03:36:58.152Z,12.11
2023-03-24T03:42:23.881Z,12.10
2023-03-24T03:47:49.491Z,12.08
2023-03-24T03:53:17.760Z,12.07
2023-03-24T03:58:42.818Z,12.06
2023-03-24T04:04:30.259Z,12.04
2023-03-24T04:10:45.277Z,12.10
2023-03-24T04:16:23.432Z,12.16
2023-03-24T04:22:50.018Z,12.23
2023-03-24T04:28:16.044Z,12.22
2023-03-24T04:33:49.101Z,12.14
2023-03-24T04:39:18.530Z,12.10
2023-03-24T04:44:51.816Z,12.07
2023-03-24T04:50:46.070Z,12.10
2023-03-24T04:56:29.278Z,12.15
2023-03-24T05:02:07.787Z,12.23
2023-03-24T05:07:53.836Z,12.25
2023-03-24T05:13:19.377Z,12.23
2023-03-24T05:18:47.432Z,12.18
2023-03-24T05:24:12.952Z,12.12
2023-03-24T05:29:38.213Z,12.10
2023-03-24T05:35:04.407Z,12.13
2023-03-24T05:40:31.714Z,12.17
2023-03-24T05:46:08.176Z,12.19
2023-03-24T05:51:32.373Z,12.21
2023-03-24T05:57:02.627Z,12.22
2023-03-24T06:02:27.642Z,12.25
2023-03-24T06:07:58.934Z,12.27
2023-03-24T06:13:24.096Z,12.29
2023-03-24T06:18:52.874Z,12.30
2023-03-24T06:24:38.143Z,12.34
2023-03-24T06:30:07.226Z,12.40
2023-03-24T06:35:32.802Z,12.41
2023-03-24T06:41:03.152Z,12.41
2023-03-24T06:46:29.789Z,12.36
2023-03-24T06:51:54.652Z,12.29
2023-03-24T06:57:20.050Z,12.25
2023-03-24T07:03:04.269Z,12.25
2023-03-24T07:08:37.107Z,12.33
2023-03-24T07:14:09.906Z,12.48
2023-03-24T07:19:36.262Z,12.71
2023-03-24T07:25:20.434Z,12.92
2023-03-24T07:30:51.623Z,13.15
2023-03-24T07:36:19.427Z,13.40
2023-03-24T07:41:43.977Z,13.62
2023-03-24T07:47:29.150Z,13.78
2023-03-24T07:52:54.300Z,13.92
2023-03-24T07:58:19.051Z,14.05
2023-03-24T08:03:58.630Z,14.26
2023-03-24T08:09:44.108Z,14.52
2023-03-24T08:15:10.450Z,14.68
2023-03-24T08:25:59.014Z,14.92
2023-03-24T08:31:23.082Z,14.97
2023-03-24T08:36:47.788Z,14.94
2023-03-24T08:42:12.668Z,14.88
2023-03-24T08:47:37.709Z,14.87
2023-03-24T08:53:02.790Z,14.91
2023-03-24T08:58:27.363Z,15.07
2023-03-24T09:03:52.397Z,15.35
2023-03-24T09:09:16.836Z,15.60
2023-03-24T09:14:42.565Z,15.65
2023-03-24T09:20:12.166Z,15.70
2023-03-24T09:25:36.295Z,15.82
2023-03-24T09:31:03.197Z,15.98
2023-03-24T09:36:28.615Z,16.17
2023-03-24T09:41:56.478Z,16.39
2023-03-24T09:47:37.570Z,16.53
2023-03-24T09:53:23.166Z,16.69
2023-03-24T09:58:53.776Z,16.87
2023-03-24T10:04:21.656Z,17.04
2023-03-24T10:09:53.737Z,17.12
2023-03-24T10:15:37.108Z,17.24
2023-03-24T10:21:18.289Z,17.43
2023-03-24T10:26:55.724Z,17.65
2023-03-24T10:32:25.633Z,17.72
2023-03-24T10:37:52.728Z,17.67
2023-03-24T10:43:21.567Z,17.45
2023-03-24T10:48:48.637Z,17.15
2023-03-24T10:54:21.713Z,16.98
2023-03-24T10:59:58.270Z,16.80
2023-03-24T11:05:30.936Z,16.70
2023-03-24T11:10:56.709Z,16.59
2023-03-24T11:16:37.731Z,16.55
2023-03-24T11:22:06.109Z,16.56
2023-03-24T11:27:32.213Z,16.46
2023-03-24T11:32:58.745Z,16.41
2023-03-24T11:38:31.734Z,16.42
2023-03-24T11:44:23.073Z,16.51
2023-03-24T11:49:58.656Z,16.64
2023-03-24T11:55:42.734Z,16.86
2023-03-24T12:01:12.583Z,17.14
2023-03-24T12:06:57.317Z,17.37
2023-03-24T12:12:42.882Z,17.56
2023-03-24T12:18:16.268Z,17.60
2023-03-24T12:24:02.718Z,17.94
2023-03-24T12:29:54.870Z,18.27
2023-03-24T12:35:32.409Z,18.22
2023-03-24T12:41:25.300Z,18.07
2023-03-24T12:47:22.835Z,18.00
2023-03-24T12:58:43.362Z,17.71
2023-03-24T13:04:21.511Z,17.63
2023-03-24T13:09:46.842Z,17.66
2023-03-24T13:15:17.938Z,17.60
2023-03-24T13:20:49.987Z,17.61
2023-03-24T13:26:27.207Z,17.52
2023-03-24T13:32:24.603Z,17.29
2023-03-24T13:37:57.843Z,17.00
2023-03-24T13:43:30.041Z,16.73
2023-03-24T13:49:00.624Z,16.61
2023-03-24T13:54:28.058Z,16.83
2023-03-24T14:00:19.297Z,17.09
2023-03-24T14:06:00.096Z,17.14
2023-03-24T14:11:38.758Z,17.09
2023-03-24T14:17:07.081Z,16.91
2023-03-24T14:22:36.646Z,16.65
2023-03-24T14:28:18.200Z,16.46
2023-03-24T14:33:54.699Z,16.42
2023-03-24T14:39:28.549Z,16.47
2023-03-24T14:44:53.985Z,16.55
2023-03-24T14:50:22.880Z,16.55
2023-03-24T14:55:49.229Z,16.51
2023-03-24T15:01:15.072Z,16.45
2023-03-24T15:06:47.359Z,16.42
2023-03-24T15:12:11.884Z,16.51
2023-03-24T15:17:36.164Z,16.81
2023-03-24T15:23:09.284Z,16.99
2023-03-24T15:28:34.101Z,16.97
2023-03-24T15:34:25.581Z,16.92
2023-03-24T15:39:57.045Z,17.02
2023-03-24T15:45:51.033Z,17.04
2023-03-24T15:51:17.400Z,16.85
2023-03-24T15:56:42.799Z,16.62
2023-03-24T16:02:19.132Z,16.28
2023-03-24T16:07:43.587Z,14.42
2023-03-24T16:13:16.223Z,12.98
2023-03-24T16:18:46.600Z,12.20
2023-03-24T16:24:11.191Z,11.76
2023-03-24T16:29:37.380Z,11.55
2023-03-24T16:35:03.233Z,11.39
2023-03-24T16:40:36.677Z,11.25
2023-03-24T16:46:01.895Z,11.08
2023-03-24T16:51:27.588Z,11.03
2023-03-24T16:56:52.023Z,10.95
2023-03-24T17:02:19.927Z,10.90
2023-03-24T17:07:44.843Z,10.85
2023-03-24T17:13:08.922Z,10.81
2023-03-24T17:18:33.612Z,10.85
2023-03-24T17:23:57.598Z,10.93
2023-03-24T17:29:23.151Z,10.96
2023-03-24T17:34:48.422Z,10.92
2023-03-24T17:40:15.839Z,10.88
2023-03-24T17:45:43.337Z,10.78
2023-03-24T17:51:07.797Z,10.68
2023-03-24T17:56:32.527Z,10.59
2023-03-24T18:01:56.322Z,10.55
2023-03-24T18:07:21.400Z,10.51
2023-03-24T18:12:46.604Z,10.46
2023-03-24T18:18:10.866Z,10.37
2023-03-24T18:23:37.228Z,10.26
2023-03-24T18:29:01.424Z,10.15
2023-03-24T18:34:26.964Z,10.06
2023-03-24T18:39:51.975Z,9.99
2023-03-24T18:45:19.919Z,9.95
2023-03-24T18:50:44.189Z,9.93
2023-03-24T18:56:09.127Z,9.86
2023-03-24T19:01:33.584Z,9.75
2023-03-24T19:06:57.849Z,9.65
2023-03-24T19:12:22.808Z,9.56
2023-03-24T19:17:47.992Z,9.48
2023-03-24T19:23:33.580Z,9.43
2023-03-24T19:29:04.108Z,9.40
2023-03-24T19:34:28.744Z,9.39
2023-03-24T19:39:54.512Z,9.39
2023-03-24T19:45:21.288Z,9.40
2023-03-24T19:50:47.014Z,9.38
2023-03-24T19:56:13.509Z,9.38
2023-03-24T20:01:38.577Z,9.37
2023-03-24T20:07:03.761Z,9.36
2023-03-24T20:12:28.244Z,9.36
2023-03-24T20:17:56.501Z,9.35
2023-03-24T20:23:22.717Z,9.36
2023-03-24T20:28:48.403Z,9.35
2023-03-24T20:34:12.434Z,9.36
2023-03-24T20:39:36.833Z,9.32
2023-03-24T20:45:01.370Z,9.27
2023-03-24T20:50:28.335Z,9.23
2023-03-24T20:56:07.080Z,9.20
2023-03-24T21:01:36.485Z,9.15
2023-03-24T21:07:01.520Z,9.10
2023-03-24T21:12:25.954Z,9.03
2023-03-24T21:17:51.000Z,9.00
2023-03-24T21:23:19.211Z,8.99
2023-03-24T21:28:44.900Z,8.98
2023-03-24T21:34:09.438Z,8.92
2023-03-24T21:39:34.015Z,8.79
2023-03-24T21:44:58.174Z,8.71
2023-03-24T21:50:26.081Z,8.69
2023-03-24T21:56:05.281Z,8.69
2023-03-24T22:01:31.387Z,8.64
2023-03-24T22:06:56.725Z,8.69
2023-03-24T22:12:21.103Z,8.68
2023-03-24T22:17:45.425Z,8.63
2023-03-24T22:23:09.918Z,8.63
2023-03-24T22:28:36.568Z,8.65
2023-03-24T22:34:01.572Z,8.67
2023-03-24T22:39:26.354Z,8.67
2023-03-24T22:44:50.516Z,8.67
2023-03-24T22:50:14.837Z,8.66
2023-03-24T22:55:39.628Z,8.63
2023-03-24T23:01:06.698Z,8.60
2023-03-24T23:06:31.401Z,8.62
2023-03-24T23:11:55.514Z,8.66
2023-03-24T23:17:19.852Z,8.64
2023-03-24T23:22:43.566Z,8.63
2023-03-24T23:28:07.864Z,8.63
2023-03-24T23:33:33.430Z,8.64
2023-03-24T23:38:57.944Z,8.61
2023-03-24T23:44:21.849Z,8.63
2023-03-24T23:49:45.909Z,8.63
2023-03-24T23:55:13.473Z,8.59
